createdAt,value
2022-08-26T00:00:24.901Z,23.05
2022-08-26T00:01:29.704Z,23.08
2022-08-26T00:02:24.948Z,22.99
2022-08-26T00:03:24.898Z,22.98
2022-08-26T00:04:26.071Z,23.00
2022-08-26T00:05:24.847Z,23.02
2022-08-26T00:06:24.834Z,23.00
2022-08-26T00:07:24.821Z,22.96
2022-08-26T00:08:24.833Z,22.98
2022-08-26T00:09:25.058Z,22.96
2022-08-26T00:10:25.844Z,23.02
2022-08-26T00:11:26.967Z,23.00
2022-08-26T00:12:36.059Z,22.96
2022-08-26T00:13:26.537Z,22.90
2022-08-26T00:14:53.773Z,22.87
2022-08-26T00:15:24.738Z,22.85
2022-08-26T00:16:24.795Z,22.85
2022-08-26T00:17:24.717Z,22.85
2022-08-26T00:18:24.798Z,22.90
2022-08-26T00:19:24.717Z,22.87
2022-08-26T00:20:24.682Z,22.75
2022-08-26T00:21:24.839Z,22.90
2022-08-26T00:22:24.679Z,22.88
2022-08-26T00:23:24.708Z,22.78
2022-08-26T00:24:24.650Z,22.75
2022-08-26T00:25:24.870Z,22.83
2022-08-26T00:26:24.621Z,22.81
2022-08-26T00:27:24.666Z,22.72
2022-08-26T00:28:24.622Z,22.76
2022-08-26T00:29:24.593Z,22.75
2022-08-26T00:30:24.584Z,22.76
2022-08-26T00:31:24.622Z,22.75
2022-08-26T00:32:24.558Z,22.75
2022-08-26T00:33:24.564Z,22.76
2022-08-26T00:34:24.540Z,22.73
2022-08-26T00:35:24.530Z,22.68
2022-08-26T00:36:24.524Z,22.75
2022-08-26T00:37:24.511Z,22.65
2022-08-26T00:38:24.560Z,22.62
2022-08-26T00:39:24.482Z,22.69
2022-08-26T00:40:24.574Z,22.59
2022-08-26T00:41:24.464Z,22.63
2022-08-26T00:42:24.501Z,22.66
2022-08-26T00:43:24.456Z,22.66
2022-08-26T00:44:24.423Z,22.62
2022-08-26T00:45:24.478Z,22.66
2022-08-26T00:46:24.405Z,22.68
2022-08-26T00:47:24.402Z,22.68
2022-08-26T00:48:24.424Z,22.69
2022-08-26T00:49:24.380Z,22.60
2022-08-26T00:50:24.378Z,22.60
2022-08-26T00:51:24.342Z,22.65
2022-08-26T00:52:25.334Z,22.60
2022-08-26T00:53:27.860Z,22.60
2022-08-26T00:54:24.311Z,22.59
2022-08-26T00:55:24.383Z,22.60
2022-08-26T00:56:24.291Z,22.57
2022-08-26T00:57:24.281Z,22.60
2022-08-26T00:58:25.098Z,22.59
2022-08-26T00:59:24.269Z,22.57
2022-08-26T01:00:24.243Z,22.59
2022-08-26T01:01:24.262Z,22.55
2022-08-26T01:02:24.259Z,22.55
2022-08-26T01:03:24.259Z,22.59
2022-08-26T01:04:24.205Z,22.55
2022-08-26T01:05:24.193Z,22.62
2022-08-26T01:06:24.194Z,22.62
2022-08-26T01:07:24.180Z,22.62
2022-08-26T01:08:24.371Z,22.62
2022-08-26T01:09:24.175Z,22.62
2022-08-26T01:10:24.140Z,22.62
2022-08-26T01:11:24.134Z,22.59
2022-08-26T01:12:25.116Z,22.65
2022-08-26T01:13:24.108Z,22.69
2022-08-26T01:14:24.136Z,22.76
2022-08-26T01:15:24.091Z,22.76
2022-08-26T01:16:24.090Z,22.73
2022-08-26T01:17:24.062Z,22.84
2022-08-26T01:18:24.076Z,22.75
2022-08-26T01:19:24.066Z,22.76
2022-08-26T01:20:24.035Z,22.85
2022-08-26T01:21:24.018Z,22.81
2022-08-26T01:22:26.720Z,22.72
2022-08-26T01:23:24.002Z,22.88
2022-08-26T01:24:24.008Z,22.81
2022-08-26T01:25:23.968Z,22.81
2022-08-26T01:26:23.963Z,22.85
2022-08-26T01:27:23.953Z,22.76
2022-08-26T01:28:23.946Z,22.78
2022-08-26T01:29:40.081Z,22.85
2022-08-26T01:30:23.918Z,22.80
2022-08-26T01:31:23.971Z,22.78
2022-08-26T01:32:23.908Z,22.73
2022-08-26T01:33:24.560Z,22.78
2022-08-26T01:34:26.292Z,22.78
2022-08-26T01:35:23.866Z,22.78
2022-08-26T01:36:23.857Z,22.75
2022-08-26T01:37:23.837Z,22.80
2022-08-26T01:38:23.855Z,22.72
2022-08-26T01:39:23.850Z,22.73
2022-08-26T01:40:23.940Z,22.72
2022-08-26T01:41:27.172Z,22.76
2022-08-26T01:42:24.809Z,22.78
2022-08-26T01:43:23.776Z,22.78
2022-08-26T01:44:23.764Z,22.83
2022-08-26T01:45:23.792Z,22.78
2022-08-26T01:46:23.747Z,22.83
2022-08-26T01:47:23.735Z,22.80
2022-08-26T01:48:23.728Z,22.78
2022-08-26T01:49:23.708Z,22.75
2022-08-26T01:50:27.705Z,22.75
2022-08-26T01:51:24.713Z,22.73
2022-08-26T01:52:23.676Z,22.75
2022-08-26T01:53:23.676Z,22.83
2022-08-26T01:54:23.679Z,22.76
2022-08-26T01:55:32.447Z,22.76
2022-08-26T01:56:24.819Z,22.76
2022-08-26T01:57:24.623Z,22.83
2022-08-26T01:58:23.614Z,22.73
2022-08-26T01:59:23.628Z,22.76
2022-08-26T02:00:23.597Z,22.75
2022-08-26T02:01:23.665Z,22.80
2022-08-26T02:02:24.665Z,22.81
2022-08-26T02:03:23.561Z,22.63
2022-08-26T02:04:23.657Z,22.60
2022-08-26T02:05:23.548Z,22.63
2022-08-26T02:06:23.529Z,22.69
2022-08-26T02:07:23.519Z,22.65
2022-08-26T02:08:24.735Z,22.65
2022-08-26T02:09:23.517Z,22.65
2022-08-26T02:10:23.481Z,22.62
2022-08-26T02:11:23.465Z,22.55
2022-08-26T02:12:23.458Z,22.60
2022-08-26T02:13:23.454Z,22.59
2022-08-26T02:14:23.588Z,22.53
2022-08-26T02:15:23.423Z,22.55
2022-08-26T02:16:23.496Z,22.53
2022-08-26T02:17:23.398Z,22.50
2022-08-26T02:18:23.556Z,22.47
2022-08-26T02:19:23.499Z,22.43
2022-08-26T02:20:23.379Z,22.41
2022-08-26T02:21:25.053Z,22.38
2022-08-26T02:22:24.598Z,22.47
2022-08-26T02:23:23.954Z,22.39
2022-08-26T02:24:23.375Z,22.45
2022-08-26T02:25:23.338Z,22.32
2022-08-26T02:26:23.306Z,22.45
2022-08-26T02:27:23.292Z,22.45
2022-08-26T02:28:26.694Z,22.45
2022-08-26T02:29:23.274Z,22.36
2022-08-26T02:30:23.301Z,22.44
2022-08-26T02:31:23.272Z,22.38
2022-08-26T02:32:23.240Z,22.28
2022-08-26T02:33:23.233Z,22.32
2022-08-26T02:34:23.238Z,22.32
2022-08-26T02:35:23.260Z,22.30
2022-08-26T02:36:23.197Z,22.25
2022-08-26T02:37:23.181Z,22.30
2022-08-26T02:38:24.135Z,22.29
2022-08-26T02:39:23.397Z,22.26
2022-08-26T02:40:23.228Z,22.29
2022-08-26T02:41:23.169Z,22.28
2022-08-26T02:42:23.135Z,22.28
2022-08-26T02:43:31.476Z,22.32
2022-08-26T02:44:24.134Z,22.25
2022-08-26T02:45:26.131Z,22.29
2022-08-26T02:46:29.717Z,22.29
2022-08-26T02:47:24.916Z,22.35
2022-08-26T02:48:23.067Z,22.30
2022-08-26T02:49:23.070Z,22.32
2022-08-26T02:50:23.038Z,22.32
2022-08-26T02:51:23.054Z,22.33
2022-08-26T02:52:23.628Z,22.29
2022-08-26T02:53:25.349Z,22.26
2022-08-26T02:54:23.015Z,22.33
2022-08-26T02:55:24.680Z,22.45
2022-08-26T02:56:23.110Z,22.43
2022-08-26T02:57:22.961Z,22.47
2022-08-26T02:58:22.955Z,22.47
2022-08-26T02:59:24.493Z,22.43
2022-08-26T03:00:22.984Z,22.43
2022-08-26T03:01:22.997Z,22.45
2022-08-26T03:02:22.968Z,22.48
2022-08-26T03:03:23.752Z,22.51
2022-08-26T03:04:22.927Z,22.48
2022-08-26T03:05:24.074Z,22.59
2022-08-26T03:06:22.884Z,22.48
2022-08-26T03:07:22.861Z,22.55
2022-08-26T03:08:22.848Z,22.48
2022-08-26T03:09:22.840Z,22.53
2022-08-26T03:10:22.846Z,22.47
2022-08-26T03:11:22.811Z,22.51
2022-08-26T03:12:22.805Z,22.54
2022-08-26T03:13:22.813Z,22.48
2022-08-26T03:14:22.800Z,22.51
2022-08-26T03:15:22.819Z,22.47
2022-08-26T03:16:22.839Z,22.54
2022-08-26T03:17:22.753Z,22.47
2022-08-26T03:18:22.736Z,22.50
2022-08-26T03:19:22.730Z,22.44
2022-08-26T03:20:22.735Z,22.54
2022-08-26T03:21:22.704Z,22.41
2022-08-26T03:22:22.697Z,22.41
2022-08-26T03:23:22.684Z,22.45
2022-08-26T03:24:22.871Z,22.45
2022-08-26T03:25:22.678Z,22.44
2022-08-26T03:26:22.653Z,22.38
2022-08-26T03:27:22.658Z,22.38
2022-08-26T03:28:22.922Z,22.45
2022-08-26T03:29:22.618Z,22.39
2022-08-26T03:30:22.634Z,22.45
2022-08-26T03:31:24.498Z,22.43
2022-08-26T03:32:22.589Z,22.39
2022-08-26T03:33:22.573Z,22.33
2022-08-26T03:34:22.570Z,22.36
2022-08-26T03:35:26.306Z,22.33
2022-08-26T03:36:22.540Z,22.23
2022-08-26T03:37:22.533Z,22.25
2022-08-26T03:38:22.522Z,22.29
2022-08-26T03:39:22.530Z,22.33
2022-08-26T03:40:22.558Z,22.30
2022-08-26T03:41:22.488Z,22.30
2022-08-26T03:42:22.476Z,22.30
2022-08-26T03:43:22.504Z,22.28
2022-08-26T03:44:22.489Z,22.28
2022-08-26T03:45:22.765Z,22.29
2022-08-26T03:46:22.475Z,22.33
2022-08-26T03:47:22.421Z,22.36
2022-08-26T03:48:22.408Z,22.29
2022-08-26T03:49:22.396Z,22.32
2022-08-26T03:50:22.869Z,22.32
2022-08-26T03:51:22.386Z,22.25
2022-08-26T03:52:22.370Z,22.25
2022-08-26T03:53:22.354Z,22.38
2022-08-26T03:54:22.348Z,22.35
2022-08-26T03:55:23.782Z,22.28
2022-08-26T03:56:22.321Z,22.30
2022-08-26T03:57:22.314Z,22.38
2022-08-26T03:58:22.587Z,22.28
2022-08-26T03:59:22.295Z,22.35
2022-08-26T04:00:22.284Z,22.35
2022-08-26T04:01:28.352Z,22.23
2022-08-26T04:02:22.380Z,22.23
2022-08-26T04:03:22.283Z,22.25
2022-08-26T04:04:22.719Z,22.30
2022-08-26T04:05:22.272Z,22.22
2022-08-26T04:06:22.218Z,22.32
2022-08-26T04:07:22.206Z,22.17
2022-08-26T04:08:22.193Z,22.13
2022-08-26T04:09:22.183Z,22.29
2022-08-26T04:10:29.037Z,22.18
2022-08-26T04:11:23.157Z,22.08
2022-08-26T04:12:22.154Z,22.17
2022-08-26T04:13:22.146Z,22.11
2022-08-26T04:14:22.132Z,22.06
2022-08-26T04:15:22.120Z,22.15
2022-08-26T04:16:22.167Z,22.08
2022-08-26T04:17:24.979Z,22.10
2022-08-26T04:18:22.118Z,22.14
2022-08-26T04:19:22.119Z,22.25
2022-08-26T04:20:22.072Z,22.11
2022-08-26T04:21:22.053Z,22.15
2022-08-26T04:22:25.005Z,22.06
2022-08-26T04:23:22.030Z,22.13
2022-08-26T04:24:22.015Z,22.22
2022-08-26T04:25:22.037Z,22.17
2022-08-26T04:26:22.002Z,22.14
2022-08-26T04:27:21.985Z,22.20
2022-08-26T04:28:21.994Z,22.15
2022-08-26T04:29:21.966Z,22.25
2022-08-26T04:30:22.030Z,22.25
2022-08-26T04:31:22.049Z,22.13
2022-08-26T04:32:21.933Z,22.22
2022-08-26T04:33:32.398Z,22.26
2022-08-26T04:34:23.080Z,22.32
2022-08-26T04:35:25.596Z,22.23
2022-08-26T04:36:21.894Z,22.26
2022-08-26T04:37:21.878Z,22.28
2022-08-26T04:38:21.868Z,22.20
2022-08-26T04:39:21.858Z,22.30
2022-08-26T04:40:21.911Z,22.26
2022-08-26T04:41:21.862Z,22.23
2022-08-26T04:42:23.301Z,22.17
2022-08-26T04:43:21.811Z,22.20
2022-08-26T04:44:21.824Z,22.15
2022-08-26T04:45:22.866Z,22.23
2022-08-26T04:46:21.887Z,22.13
2022-08-26T04:47:21.872Z,22.26
2022-08-26T04:48:21.788Z,22.22
2022-08-26T04:49:21.753Z,22.25
2022-08-26T04:50:21.739Z,22.17
2022-08-26T04:51:22.215Z,22.28
2022-08-26T04:52:21.724Z,22.32
2022-08-26T04:53:21.782Z,22.25
2022-08-26T04:54:21.714Z,22.30
2022-08-26T04:55:21.708Z,22.33
2022-08-26T04:56:22.674Z,22.15
2022-08-26T04:57:21.667Z,22.20
2022-08-26T04:58:21.658Z,22.26
2022-08-26T04:59:21.658Z,22.25
2022-08-26T05:00:21.634Z,22.06
2022-08-26T05:01:21.714Z,22.23
2022-08-26T05:02:21.637Z,22.13
2022-08-26T05:03:21.599Z,22.23
2022-08-26T05:04:22.277Z,22.30
2022-08-26T05:05:21.570Z,22.36
2022-08-26T05:06:22.046Z,22.41
2022-08-26T05:07:21.570Z,22.44
2022-08-26T05:08:23.142Z,22.45
2022-08-26T05:09:21.533Z,22.44
2022-08-26T05:10:22.133Z,22.62
2022-08-26T05:11:21.507Z,22.50
2022-08-26T05:12:21.513Z,22.68
2022-08-26T05:13:21.486Z,22.68
2022-08-26T05:14:21.496Z,22.73
2022-08-26T05:15:21.466Z,22.72
2022-08-26T05:16:22.789Z,22.80
2022-08-26T05:17:21.444Z,22.76
2022-08-26T05:18:21.442Z,22.80
2022-08-26T05:19:21.427Z,22.72
2022-08-26T05:20:25.618Z,22.72
2022-08-26T05:21:21.402Z,22.75
2022-08-26T05:22:21.433Z,22.75
2022-08-26T05:23:21.557Z,22.78
2022-08-26T05:24:21.378Z,22.80
2022-08-26T05:25:21.382Z,22.78
2022-08-26T05:26:22.921Z,22.80
2022-08-26T05:27:21.600Z,22.93
2022-08-26T05:28:21.336Z,22.98
2022-08-26T05:29:21.319Z,23.13
2022-08-26T05:30:21.299Z,23.09
2022-08-26T05:31:21.348Z,23.13
2022-08-26T05:32:21.297Z,23.15
2022-08-26T05:33:21.302Z,23.23
2022-08-26T05:34:21.268Z,23.27
2022-08-26T05:35:21.245Z,23.24
2022-08-26T05:36:21.242Z,23.39
2022-08-26T05:37:21.249Z,23.44
2022-08-26T05:38:21.213Z,23.39
2022-08-26T05:39:21.204Z,23.46
2022-08-26T05:40:22.220Z,23.46
2022-08-26T05:41:21.182Z,23.51
2022-08-26T05:42:21.190Z,23.56
2022-08-26T05:43:21.155Z,23.66
2022-08-26T05:44:21.143Z,23.73
2022-08-26T05:45:21.136Z,23.88
2022-08-26T05:46:21.208Z,23.76
2022-08-26T05:47:21.138Z,23.65
2022-08-26T05:48:22.520Z,23.68
2022-08-26T05:49:21.098Z,23.74
2022-08-26T05:50:22.372Z,23.83
2022-08-26T05:51:25.396Z,23.98
2022-08-26T05:52:22.079Z,23.95
2022-08-26T05:53:21.051Z,24.14
2022-08-26T05:54:21.964Z,24.28
2022-08-26T05:55:21.030Z,24.24
2022-08-26T05:56:21.040Z,24.21
2022-08-26T05:57:21.059Z,24.10
2022-08-26T05:58:20.996Z,24.06
2022-08-26T05:59:24.226Z,24.16
2022-08-26T06:00:20.976Z,24.26
2022-08-26T06:01:21.483Z,24.38
2022-08-26T06:02:21.405Z,24.60
2022-08-26T06:03:21.022Z,24.76
2022-08-26T06:04:20.926Z,24.89
2022-08-26T06:05:20.913Z,25.06
2022-08-26T06:06:27.294Z,25.04
2022-08-26T06:07:21.913Z,25.21
2022-08-26T06:08:20.890Z,25.31
2022-08-26T06:09:20.871Z,25.50
2022-08-26T06:10:32.039Z,25.58
2022-08-26T06:11:21.842Z,25.43
2022-08-26T06:12:20.891Z,25.60
2022-08-26T06:13:20.823Z,25.75
2022-08-26T06:14:28.654Z,25.93
2022-08-26T06:15:20.802Z,25.99
2022-08-26T06:16:20.895Z,26.00
2022-08-26T06:17:20.775Z,26.05
2022-08-26T06:18:21.140Z,26.16
2022-08-26T06:19:20.756Z,26.29
2022-08-26T06:20:20.741Z,26.43
2022-08-26T06:21:20.731Z,26.68
2022-08-26T06:22:23.543Z,26.83
2022-08-26T06:23:20.715Z,26.48
2022-08-26T06:24:20.994Z,26.62
2022-08-26T06:25:21.693Z,26.78
2022-08-26T06:26:20.688Z,26.96
2022-08-26T06:27:20.670Z,26.93
2022-08-26T06:28:20.671Z,27.11
2022-08-26T06:29:24.219Z,27.37
2022-08-26T06:30:20.636Z,27.48
2022-08-26T06:31:20.703Z,27.54
2022-08-26T06:32:20.616Z,27.68
2022-08-26T06:33:20.624Z,28.01
2022-08-26T06:34:20.590Z,28.33
2022-08-26T06:35:20.603Z,28.22
2022-08-26T06:36:20.577Z,28.23
2022-08-26T06:37:20.575Z,27.74
2022-08-26T06:38:20.549Z,27.92
2022-08-26T06:39:20.848Z,28.35
2022-08-26T06:40:20.627Z,28.86
2022-08-26T06:41:20.519Z,29.41
2022-08-26T06:42:20.763Z,29.93
2022-08-26T06:43:20.501Z,29.91
2022-08-26T06:44:20.951Z,29.63
2022-08-26T06:45:20.474Z,29.51
2022-08-26T06:46:20.484Z,29.78
2022-08-26T06:47:22.749Z,30.10
2022-08-26T06:48:20.456Z,30.48
2022-08-26T06:49:25.645Z,30.72
2022-08-26T06:50:21.414Z,30.70
2022-08-26T06:51:20.412Z,31.09
2022-08-26T06:52:24.563Z,30.77
2022-08-26T06:53:20.408Z,30.81
2022-08-26T06:54:20.377Z,31.03
2022-08-26T06:55:20.367Z,31.37
2022-08-26T06:56:21.511Z,31.78
2022-08-26T06:57:20.346Z,31.85
2022-08-26T06:58:20.357Z,31.87
2022-08-26T06:59:20.325Z,32.22
2022-08-26T07:00:20.311Z,32.73
2022-08-26T07:01:20.369Z,32.87
2022-08-26T07:02:20.830Z,32.78
2022-08-26T07:03:20.292Z,33.32
2022-08-26T07:04:22.378Z,33.77
2022-08-26T07:05:20.266Z,34.08
2022-08-26T07:06:20.257Z,34.43
2022-08-26T07:07:21.990Z,34.60
2022-08-26T07:08:20.247Z,35.14
2022-08-26T07:09:20.218Z,35.45
2022-08-26T07:10:20.205Z,35.79
2022-08-26T07:11:20.748Z,36.04
2022-08-26T07:12:20.202Z,35.53
2022-08-26T07:13:30.920Z,35.49
2022-08-26T07:14:21.899Z,35.58
2022-08-26T07:15:20.157Z,35.46
2022-08-26T07:16:21.206Z,35.23
2022-08-26T07:17:20.510Z,35.58
2022-08-26T07:18:20.140Z,35.04
2022-08-26T07:19:30.587Z,35.31
2022-08-26T07:20:21.099Z,35.79
2022-08-26T07:21:20.092Z,36.24
2022-08-26T07:22:20.108Z,36.55
2022-08-26T07:23:20.279Z,36.93
2022-08-26T07:24:20.753Z,37.17
2022-08-26T07:25:20.051Z,37.48
2022-08-26T07:26:20.038Z,37.55
2022-08-26T07:27:20.033Z,37.94
2022-08-26T07:28:21.178Z,37.53
2022-08-26T07:29:20.048Z,37.80
2022-08-26T07:30:20.012Z,38.04
2022-08-26T07:31:20.061Z,38.36
2022-08-26T07:32:19.977Z,38.50
2022-08-26T07:33:19.973Z,38.55
2022-08-26T07:34:19.983Z,38.83
2022-08-26T07:35:19.947Z,39.44
2022-08-26T07:36:19.945Z,39.80
2022-08-26T07:37:20.038Z,40.31
2022-08-26T07:38:19.918Z,40.77
2022-08-26T07:39:20.015Z,41.14
2022-08-26T07:40:19.943Z,41.40
2022-08-26T07:41:20.008Z,41.71
2022-08-26T07:42:19.878Z,41.94
2022-08-26T07:43:19.886Z,42.07
2022-08-26T07:44:19.870Z,42.38
2022-08-26T07:45:21.121Z,42.31
2022-08-26T07:46:20.757Z,42.28
2022-08-26T07:47:24.735Z,42.24
2022-08-26T07:48:21.441Z,42.43
2022-08-26T07:49:19.942Z,42.58
2022-08-26T07:50:19.836Z,42.69
2022-08-26T07:51:21.181Z,42.81
2022-08-26T07:52:21.664Z,42.84
2022-08-26T07:53:20.793Z,43.00
2022-08-26T07:54:19.758Z,42.70
2022-08-26T07:55:19.746Z,42.65
2022-08-26T07:56:19.734Z,42.29
2022-08-26T07:57:19.795Z,42.51
2022-08-26T07:58:19.827Z,42.85
2022-08-26T07:59:19.751Z,43.24
2022-08-26T08:00:19.783Z,43.13
2022-08-26T08:01:19.759Z,42.58
2022-08-26T08:02:19.679Z,42.74
2022-08-26T08:03:28.180Z,42.91
2022-08-26T08:04:25.511Z,42.82
2022-08-26T08:05:20.644Z,42.85
2022-08-26T08:06:19.657Z,42.95
2022-08-26T08:07:19.635Z,42.95
2022-08-26T08:08:27.145Z,42.44
2022-08-26T08:09:20.631Z,40.92
2022-08-26T08:10:20.842Z,40.04
2022-08-26T08:11:19.587Z,39.26
2022-08-26T08:12:19.589Z,38.79
2022-08-26T08:13:19.574Z,38.73
2022-08-26T08:14:22.202Z,38.55
2022-08-26T08:15:20.275Z,38.33
2022-08-26T08:16:19.612Z,38.24
2022-08-26T08:17:19.557Z,38.33
2022-08-26T08:18:20.587Z,38.48
2022-08-26T08:19:19.537Z,38.17
2022-08-26T08:20:19.646Z,37.93
2022-08-26T08:21:21.723Z,37.84
2022-08-26T08:22:19.822Z,38.45
2022-08-26T08:23:19.469Z,39.00
2022-08-26T08:24:19.458Z,38.65
2022-08-26T08:25:19.450Z,38.68
2022-08-26T08:26:19.456Z,38.96
2022-08-26T08:27:23.546Z,39.56
2022-08-26T08:28:19.416Z,40.23
2022-08-26T08:29:19.408Z,40.81
2022-08-26T08:30:22.617Z,41.07
2022-08-26T08:31:33.239Z,41.15
2022-08-26T08:32:20.378Z,41.91
2022-08-26T08:33:19.370Z,42.67
2022-08-26T08:34:19.359Z,43.06
2022-08-26T08:35:19.367Z,43.98
2022-08-26T08:36:20.496Z,44.18
2022-08-26T08:37:19.361Z,44.20
2022-08-26T08:38:19.315Z,44.67
2022-08-26T08:39:19.331Z,44.65
2022-08-26T08:40:19.381Z,44.68
2022-08-26T08:41:19.300Z,44.98
2022-08-26T08:42:19.279Z,44.94
2022-08-26T08:43:19.270Z,44.64
2022-08-26T08:44:19.322Z,44.03
2022-08-26T08:45:19.251Z,43.79
2022-08-26T08:46:19.259Z,43.54
2022-08-26T08:47:19.257Z,42.84
2022-08-26T08:48:19.221Z,42.74
2022-08-26T08:49:19.370Z,42.88
2022-08-26T08:50:19.215Z,42.76
2022-08-26T08:51:19.196Z,42.79
2022-08-26T08:52:19.181Z,42.28
2022-08-26T08:53:19.218Z,42.16
2022-08-26T08:54:19.161Z,42.31
2022-08-26T08:55:19.265Z,42.35
2022-08-26T08:56:19.140Z,42.16
2022-08-26T08:57:19.134Z,41.77
2022-08-26T08:58:19.748Z,41.40
2022-08-26T08:59:19.115Z,41.53
2022-08-26T09:00:19.193Z,41.10
2022-08-26T09:01:19.110Z,40.54
2022-08-26T09:02:19.553Z,40.14
2022-08-26T09:03:19.076Z,39.72
2022-08-26T09:04:19.083Z,38.80
2022-08-26T09:05:19.057Z,38.19
2022-08-26T09:06:19.328Z,38.36
2022-08-26T09:07:19.038Z,39.03
2022-08-26T09:08:19.917Z,38.61
2022-08-26T09:09:19.053Z,38.08
2022-08-26T09:10:19.006Z,37.60
2022-08-26T09:11:19.018Z,37.59
2022-08-26T09:12:18.990Z,38.71
2022-08-26T09:13:25.162Z,38.67
2022-08-26T09:14:19.966Z,38.87
2022-08-26T09:15:18.961Z,39.46
2022-08-26T09:16:20.303Z,40.05
2022-08-26T09:17:18.938Z,40.49
2022-08-26T09:18:18.938Z,39.89
2022-08-26T09:19:19.316Z,39.37
2022-08-26T09:20:18.907Z,38.82
2022-08-26T09:21:19.801Z,38.80
2022-08-26T09:22:18.989Z,39.26
2022-08-26T09:23:18.877Z,38.74
2022-08-26T09:24:18.872Z,38.83
2022-08-26T09:25:19.149Z,38.92
2022-08-26T09:26:18.865Z,39.80
2022-08-26T09:27:18.839Z,40.34
2022-08-26T09:28:18.837Z,40.96
2022-08-26T09:30:18.806Z,40.46
2022-08-26T09:31:19.807Z,38.77
2022-08-26T09:32:18.794Z,37.37
2022-08-26T09:33:18.789Z,35.97
2022-08-26T09:34:19.042Z,35.92
2022-08-26T09:35:18.871Z,36.62
2022-08-26T09:36:18.777Z,37.01
2022-08-26T09:37:18.742Z,37.23
2022-08-26T09:38:18.733Z,37.86
2022-08-26T09:39:18.721Z,38.61
2022-08-26T09:40:18.763Z,39.48
2022-08-26T09:41:18.718Z,40.50
2022-08-26T09:42:19.311Z,40.21
2022-08-26T09:43:22.155Z,39.74
2022-08-26T09:44:18.675Z,39.43
2022-08-26T09:45:18.668Z,39.71
2022-08-26T09:46:18.849Z,40.05
2022-08-26T09:47:18.647Z,40.73
2022-08-26T09:48:18.659Z,41.14
2022-08-26T09:49:18.634Z,40.75
2022-08-26T09:50:18.617Z,40.70
2022-08-26T09:51:18.607Z,40.85
2022-08-26T09:52:19.772Z,40.92
2022-08-26T09:53:20.965Z,40.88
2022-08-26T09:54:20.667Z,40.96
2022-08-26T09:55:18.574Z,40.92
2022-08-26T09:56:18.586Z,40.87
2022-08-26T09:57:18.646Z,40.58
2022-08-26T09:58:18.556Z,40.33
2022-08-26T09:59:18.958Z,40.53
2022-08-26T10:00:18.523Z,41.14
2022-08-26T10:01:19.508Z,41.50
2022-08-26T10:02:18.507Z,42.10
2022-08-26T10:03:18.623Z,41.60
2022-08-26T10:04:18.522Z,41.33
2022-08-26T10:05:18.475Z,41.68
2022-08-26T10:06:20.915Z,42.21
2022-08-26T10:07:18.462Z,43.03
2022-08-26T10:08:18.446Z,43.33
2022-08-26T10:09:18.459Z,42.94
2022-08-26T10:10:18.433Z,42.95
2022-08-26T10:11:18.420Z,43.26
2022-08-26T10:12:18.442Z,42.69
2022-08-26T10:13:18.398Z,42.26
2022-08-26T10:14:18.848Z,42.36
2022-08-26T10:15:18.378Z,42.50
2022-08-26T10:16:18.442Z,42.85
2022-08-26T10:17:18.359Z,43.38
2022-08-26T10:18:18.357Z,44.22
2022-08-26T10:19:18.366Z,44.83
2022-08-26T10:20:22.590Z,45.24
2022-08-26T10:21:19.327Z,44.51
2022-08-26T10:22:18.424Z,43.23
2022-08-26T10:23:18.322Z,43.83
2022-08-26T10:24:18.322Z,44.34
2022-08-26T10:25:18.309Z,44.39
2022-08-26T10:26:18.285Z,43.98
2022-08-26T10:27:18.271Z,44.10
2022-08-26T10:28:18.267Z,44.71
2022-08-26T10:29:18.271Z,44.93
2022-08-26T10:30:18.245Z,44.11
2022-08-26T10:31:18.311Z,43.72
2022-08-26T10:32:18.318Z,43.03
2022-08-26T10:33:18.327Z,43.23
2022-08-26T10:34:18.230Z,42.67
2022-08-26T10:35:18.203Z,43.54
2022-08-26T10:36:20.293Z,44.64
2022-08-26T10:37:18.328Z,44.90
2022-08-26T10:38:18.251Z,45.12
2022-08-26T10:39:18.277Z,44.79
2022-08-26T10:40:18.344Z,45.03
2022-08-26T10:41:18.195Z,45.16
2022-08-26T10:42:18.140Z,43.76
2022-08-26T10:43:18.136Z,43.26
2022-08-26T10:44:18.150Z,42.84
2022-08-26T10:45:18.111Z,41.47
2022-08-26T10:46:18.208Z,41.02
2022-08-26T10:47:18.104Z,41.38
2022-08-26T10:48:18.085Z,42.67
2022-08-26T10:49:18.100Z,43.80
2022-08-26T10:50:18.323Z,43.49
2022-08-26T10:51:18.059Z,42.85
2022-08-26T10:52:18.053Z,42.16
2022-08-26T10:53:18.040Z,41.43
2022-08-26T10:54:18.033Z,40.56
2022-08-26T10:55:18.049Z,39.55
2022-08-26T10:56:19.423Z,39.31
2022-08-26T10:57:18.005Z,39.14
2022-08-26T10:58:26.462Z,38.80
2022-08-26T10:59:18.982Z,38.91
2022-08-26T11:00:18.038Z,39.03
2022-08-26T11:01:18.002Z,38.48
2022-08-26T11:02:24.201Z,37.89
2022-08-26T11:03:21.979Z,37.49
2022-08-26T11:04:18.031Z,37.01
2022-08-26T11:05:17.963Z,36.49
2022-08-26T11:06:17.923Z,36.05
2022-08-26T11:07:17.911Z,35.37
2022-08-26T11:08:17.901Z,34.89
2022-08-26T11:09:17.911Z,34.73
2022-08-26T11:10:18.879Z,34.23
2022-08-26T11:11:18.014Z,33.83
2022-08-26T11:12:17.860Z,33.58
2022-08-26T11:13:18.155Z,33.27
2022-08-26T11:14:17.867Z,33.00
2022-08-26T11:15:18.860Z,32.83
2022-08-26T11:16:18.867Z,32.78
2022-08-26T11:17:17.806Z,32.70
2022-08-26T11:18:17.810Z,32.53
2022-08-26T11:19:17.806Z,32.56
2022-08-26T11:20:18.773Z,32.55
2022-08-26T11:21:17.771Z,32.60
2022-08-26T11:22:18.758Z,32.68
2022-08-26T11:23:17.760Z,32.80
2022-08-26T11:24:17.898Z,32.78
2022-08-26T11:25:18.382Z,32.75
2022-08-26T11:26:20.383Z,32.77
2022-08-26T11:27:18.703Z,32.71
2022-08-26T11:28:17.735Z,32.71
2022-08-26T11:29:17.708Z,32.59
2022-08-26T11:30:18.584Z,32.67
2022-08-26T11:31:17.688Z,32.67
2022-08-26T11:32:17.656Z,32.67
2022-08-26T11:33:17.670Z,32.59
2022-08-26T11:34:17.631Z,32.56
2022-08-26T11:35:17.753Z,32.46
2022-08-26T11:36:17.612Z,32.31
2022-08-26T11:37:17.680Z,32.31
2022-08-26T11:38:17.597Z,32.19
2022-08-26T11:39:17.578Z,32.04
2022-08-26T11:40:17.629Z,31.97
2022-08-26T11:41:17.563Z,31.92
2022-08-26T11:42:20.180Z,31.92
2022-08-26T11:43:17.558Z,31.81
2022-08-26T11:44:17.541Z,31.70
2022-08-26T11:45:18.322Z,31.54
2022-08-26T11:46:17.631Z,31.52
2022-08-26T11:47:17.503Z,31.36
2022-08-26T11:48:17.486Z,31.24
2022-08-26T11:49:18.610Z,31.31
2022-08-26T11:50:17.464Z,31.22
2022-08-26T11:51:17.470Z,31.25
2022-08-26T11:52:17.438Z,31.22
2022-08-26T11:53:17.429Z,31.03
2022-08-26T11:54:17.626Z,30.94
2022-08-26T11:55:19.159Z,30.80
2022-08-26T11:56:17.933Z,30.69
2022-08-26T11:57:17.454Z,30.66
2022-08-26T11:58:17.383Z,30.61
2022-08-26T11:59:17.388Z,30.48
2022-08-26T12:00:20.926Z,30.18
2022-08-26T12:01:18.363Z,30.05
2022-08-26T12:02:17.719Z,29.51
2022-08-26T12:03:17.446Z,29.12
2022-08-26T12:04:17.536Z,28.86
2022-08-26T12:05:17.865Z,28.56
2022-08-26T12:06:17.453Z,28.51
2022-08-26T12:07:18.487Z,28.25
2022-08-26T12:08:18.282Z,27.87
2022-08-26T12:09:17.869Z,27.63
2022-08-26T12:10:17.264Z,27.49
2022-08-26T12:11:19.457Z,27.37
2022-08-26T12:12:17.228Z,27.25
2022-08-26T12:13:17.215Z,27.29
2022-08-26T12:14:17.206Z,27.22
2022-08-26T12:15:17.209Z,27.20
2022-08-26T12:16:17.228Z,27.12
2022-08-26T12:17:17.611Z,27.05
2022-08-26T12:18:17.161Z,26.93
2022-08-26T12:19:17.161Z,26.93
2022-08-26T12:20:17.192Z,26.88
2022-08-26T12:21:17.145Z,26.84
2022-08-26T12:22:17.117Z,26.70
2022-08-26T12:23:17.104Z,26.59
2022-08-26T12:24:17.103Z,26.55
2022-08-26T12:25:17.092Z,26.53
2022-08-26T12:26:17.082Z,26.53
2022-08-26T12:27:17.078Z,26.52
2022-08-26T12:28:17.590Z,26.52
2022-08-26T12:29:26.680Z,26.53
2022-08-26T12:30:19.200Z,26.47
2022-08-26T12:31:23.606Z,26.45
2022-08-26T12:32:17.030Z,26.45
2022-08-26T12:33:22.906Z,26.33
2022-08-26T12:34:18.520Z,26.36
2022-08-26T12:35:17.006Z,26.23
2022-08-26T12:36:16.988Z,26.28
2022-08-26T12:37:16.993Z,26.21
2022-08-26T12:38:16.965Z,26.13
2022-08-26T12:39:16.955Z,26.15
2022-08-26T12:40:17.043Z,26.06
2022-08-26T12:41:16.936Z,25.91
2022-08-26T12:42:17.955Z,25.95
2022-08-26T12:43:16.912Z,25.96
2022-08-26T12:44:16.896Z,25.85
2022-08-26T12:45:16.926Z,25.65
2022-08-26T12:46:16.909Z,25.66
2022-08-26T12:47:17.217Z,25.66
2022-08-26T12:48:17.853Z,25.72
2022-08-26T12:49:16.851Z,25.58
2022-08-26T12:50:16.835Z,25.48
2022-08-26T12:51:20.160Z,25.43
2022-08-26T12:52:16.829Z,25.36
2022-08-26T12:53:16.803Z,25.36